Date,TemperatureHighF,TemperatureAvgF,TemperatureLowF,DewpointHighF,DewpointAvgF,DewpointLowF,HumidityHigh,HumidityAvg,HumidityLow,PressureMaxIn,PressureMinIn,WindSpeedMaxMPH,WindSpeedAvgMPH,GustSpeedMaxMPH,PrecipitationSumIn
2013-1-1,77,70,62,53,50,47,59,49,37,30.25,30.15,7,2,10,0.00
2013-1-2,76,67,57,50,48,45,64,51,38,30.35,30.24,8,2,8,0.00
2013-1-3,76,71,61,49,44,37,43,38,31,30.40,30.31,14,5,14,0.00
2013-1-4,78,72,58,48,41,23,49,33,17,30.27,30.12,19,6,21,0.00
2013-1-5,77,72,64,46,43,38,45,35,28,30.19,30.07,11,2,11,0.00
2013-1-6,69,66,64,43,39,36,48,37,32,30.18,30.06,32,15,36,0.00
2013-1-7,65,63,62,41,39,36,44,41,37,30.21,30.16,27,14,35,0.00
2013-1-8,67,64,58,41,39,37,49,40,35,30.25,30.14,23,12,29,0.00
2013-1-9,64,61,58,42,38,30,52,42,32,30.26,30.13,34,16,38,0.00
2013-1-10,66,62,57,36,34,31,40,35,28,30.38,30.31,17,4,17,0.00
2013-1-11,71,64,57,39,34,29,39,34,25,30.56,30.41,10,5,14,0.00
2013-1-12,82,72,62,39,34,27,40,25,21,30.39,30.29,4,2,6,0.00
2013-1-13,84,74,64,47,40,33,50,31,21,30.31,30.25,10,3,10,0.00
2013-1-14,84,72,54,47,41,28,47,34,27,30.39,30.30,13,5,17,0.00
2013-1-15,82,74,66,47,38,32,36,28,20,30.40,30.29,13,6,13,0.00
2013-1-16,81,76,70,54,46,28,52,35,19,30.32,30.19,11,4,13,0.00
2013-1-17,87,78,64,56,50,38,46,37,29,30.23,30.12,7,2,8,0.00
2013-1-18,85,79,68,60,57,44,61,47,37,30.13,30.01,9,3,9,0.00
2013-1-19,91,77,62,60,50,26,63,42,15,30.21,30.12,17,4,17,0.00
2013-1-20,88,78,64,54,47,38,45,34,27,30.31,30.22,11,3,12,0.00
2013-1-21,87,74,60,54,46,35,51,37,28,30.28,30.17,10,4,10,0.00
2013-1-22,92,80,67,51,42,32,40,27,15,30.23,30.13,11,3,11,0.00
2013-1-23,84,78,67,58,54,43,49,44,37,30.24,30.16,8,4,13,0.00
2013-1-25,78,73,70,63,58,51,74,58,42,30.17,30.04,18,3,24,0.00
2013-1-26,81,76,68,62,56,50,64,51,41,30.12,30.03,10,4,10,0.00
2013-1-27,80,74,68,63,54,48,75,50,37,30.09,30.03,8,3,13,0.00
2013-1-28,74,68,63,53,40,16,68,40,13,30.08,29.93,24,8,32,0.00
2013-1-29,74,67,56,46,43,37,56,42,33,30.22,30.16,10,3,10,0.00
2013-1-30,73,66,56,45,40,33,55,40,31,30.13,30.01,32,9,33,0.00
2013-1-31,66,62,61,43,41,38,51,45,40,30.12,30.06,46,15,49,0.00
2013-2-1,71,66,59,46,43,34,51,43,34,30.22,30.10,21,10,35,0.00
2013-2-2,84,69,55,49,43,36,51,40,30,30.40,30.22,21,4,21,0.00
2013-2-3,85,72,59,54,49,43,57,45,35,30.47,30.35,14,4,14,0.00
2013-2-4,91,76,64,54,44,34,43,33,21,30.36,30.20,10,4,13,0.00
2013-2-5,84,75,63,56,45,32,54,35,21,30.20,30.03,8,3,8,0.00
2013-2-6,74,72,68,63,48,25,75,47,17,30.11,29.96,42,11,57,0.00
2013-2-7,87,76,67,52,48,42,49,37,29,30.29,30.14,9,3,12,0.00
2013-2-8,85,76,57,50,45,38,48,35,22,30.15,30.04,14,4,14,0.00
2013-2-9,86,76,60,50,44,37,55,33,23,30.22,30.12,15,4,15,0.00
2013-2-10,69,65,63,54,42,38,57,44,39,30.13,30.05,4,2,4,0.00
2013-2-11,82,74,68,54,50,46,51,43,36,30.16,30.08,13,5,14,0.00
2013-2-12,79,70,55,43,36,22,42,29,23,30.23,30.15,14,6,19,0.00
2013-2-13,84,74,61,48,40,33,40,30,21,30.23,30.11,13,5,17,0.00
2013-2-14,90,78,67,58,48,35,65,40,15,30.12,30.02,13,4,18,0.00
2013-2-15,81,74,66,61,51,22,57,45,17,30.22,30.07,14,3,16,0.00
2013-2-16,81,69,60,45,30,19,36,25,17,30.29,30.16,20,4,26,0.00
2013-2-17,81,75,68,51,41,32,45,30,21,30.19,30.06,10,3,11,0.00
2013-2-18,81,74,66,52,46,41,49,38,30,30.14,30.05,10,3,10,0.00
2013-2-19,80,75,68,52,45,37,46,35,26,30.22,30.11,13,5,16,0.00
2013-2-20,83,73,56,53,47,39,53,40,33,30.29,30.18,8,3,9,0.00
2013-2-21,85,79,72,48,44,40,35,29,24,30.23,30.09,16,7,16,0.00
2013-2-22,85,78,64,58,46,30,61,34,21,30.06,29.96,8,2,8,0.00
2013-2-23,82,78,71,50,48,44,39,35,32,30.20,30.13,12,5,12,0.00
2013-2-24,89,79,70,54,50,44,54,37,27,30.37,30.25,14,5,14,0.00
2013-2-25,96,81,65,58,47,39,53,32,15,30.31,30.19,14,5,21,0.00
2013-2-26,92,86,77,53,48,34,42,27,17,30.21,30.09,8,2,8,0.00
2013-2-27,86,83,82,49,41,38,28,23,21,30.07,30.01,6,4,6,0.00
2013-2-28,80,78,78,47,37,34,32,23,20,30.11,30.07,3,1,4,0.00
2013-3-1,86,76,67,54,50,44,52,41,29,30.14,30.06,10,3,10,0.00
2013-3-2,89,78,64,60,53,42,63,43,32,30.14,30.05,8,2,9,0.00
2013-3-3,89,82,75,66,59,52,57,46,34,30.11,30.01,12,3,12,0.00
2013-3-4,89,81,68,62,58,51,56,45,36,30.09,30.01,10,5,12,0.00
2013-3-5,80,75,68,53,51,47,52,42,37,30.16,30.09,17,6,17,0.00
2013-3-6,87,75,65,50,38,32,38,28,20,30.30,30.19,16,7,21,0.00
2013-3-7,87,77,69,51,42,38,35,29,21,30.28,30.14,17,4,17,0.00
2013-3-8,86,80,73,58,48,36,51,35,21,30.09,29.97,7,2,8,0.00
2013-3-9,87,82,74,54,49,43,40,32,22,30.06,29.97,12,5,14,0.00
2013-3-10,83,79,72,52,48,43,43,34,29,30.19,30.10,11,4,13,0.00
2013-3-11,101,85,69,58,50,40,43,31,20,30.22,30.09,12,4,12,0.00
2013-3-12,85,83,81,56,44,39,38,26,21,30.18,30.05,4,1,4,0.00
2013-3-13,101,92,76,59,43,28,33,20,14,30.09,30.01,4,1,6,0.00
2013-3-14,99,84,72,60,48,34,41,29,15,30.06,29.99,12,4,13,0.00
2013-3-15,97,92,82,64,57,44,53,32,19,30.03,29.95,8,3,11,0.00
2013-3-16,93,87,79,67,63,56,49,45,41,29.97,29.92,15,5,15,0.00
2013-3-17,81,72,65,52,46,42,52,40,26,30.14,30.04,14,5,14,0.00
2013-3-18,85,76,70,53,47,41,46,35,31,30.19,30.05,14,5,14,0.00
2013-3-19,84,79,69,57,53,46,49,41,35,30.05,29.92,12,4,12,0.00
2013-3-20,94,76,64,59,50,44,53,42,26,30.09,29.95,11,3,17,0.00
2013-3-21,101,82,65,61,53,42,60,39,15,30.11,30.01,12,3,13,0.00
2013-3-22,90,86,72,62,47,27,46,27,11,29.96,29.86,27,6,39,0.00
2013-3-23,90,80,70,53,48,36,51,34,16,30.06,29.99,10,4,12,0.00
2013-3-24,86,75,68,49,48,45,48,39,28,30.13,30.09,3,1,6,0.00
2013-3-25,97,77,64,60,51,39,56,42,20,30.16,30.04,9,3,11,0.00
2013-3-26,96,86,71,58,45,29,36,24,19,30.03,29.93,6,1,6,0.00
2013-3-27,94,84,69,55,50,44,58,32,18,30.09,30.03,10,3,14,0.00
2013-3-28,102,88,77,54,48,34,41,27,14,30.14,30.03,12,3,14,0.00
2013-3-29,96,86,74,57,51,33,48,32,12,30.09,30.00,17,6,18,0.00
2013-3-30,101,87,73,59,54,43,50,33,17,30.05,29.96,14,3,14,0.00
2013-3-31,87,79,76,56,40,27,43,25,17,30.06,30.00,7,1,7,0.00
2013-4-1,91,86,76,68,59,27,69,42,17,30.11,30.01,16,4,16,0.00
2013-4-2,90,86,78,62,56,49,51,37,28,30.12,30.00,8,3,12,0.00
2013-4-3,96,87,76,59,51,39,47,30,18,30.06,29.91,11,3,12,0.00
2013-4-4,92,85,73,62,53,43,53,34,22,30.00,29.96,16,5,23,0.00
2013-4-5,82,77,73,52,48,44,40,35,31,30.14,30.07,20,6,20,0.00
2013-4-6,99,82,71,59,50,40,53,34,20,30.18,30.04,14,4,15,0.00
2013-4-7,98,88,70,61,52,42,48,30,18,30.08,29.97,10,3,14,0.00
2013-4-8,98,90,83,61,49,28,41,26,10,30.02,29.92,27,6,27,0.00
2013-4-9,89,82,77,50,46,37,34,28,21,30.14,30.05,12,5,13,0.00
2013-4-10,87,80,70,58,52,44,51,38,30,30.15,30.04,13,5,13,0.00
2013-4-11,88,82,74,56,51,44,41,35,29,30.06,29.94,10,4,10,0.00
2013-4-12,90,84,77,57,53,49,50,35,29,30.03,29.98,8,3,12,0.00
2013-4-13,88,83,71,61,56,45,54,40,33,30.16,30.09,9,3,9,0.00
2013-4-14,91,83,79,63,60,58,51,47,38,30.17,30.06,5,2,6,0.00
2013-4-15,94,85,75,63,59,52,53,42,31,30.03,29.91,15,4,15,0.00
2013-4-16,90,86,81,60,42,30,44,24,13,30.00,29.91,35,11,44,0.00
2013-4-17,88,80,71,55,52,30,49,38,18,30.05,29.96,12,4,17,0.00
2013-4-18,84,80,75,54,51,37,47,36,25,30.07,29.95,17,5,17,0.00
2013-4-19,85,81,75,43,37,32,30,22,16,30.10,30.01,26,12,33,0.00
2013-4-20,82,79,74,46,31,25,35,19,14,30.11,30.03,41,15,44,0.00
2013-4-21,85,79,69,52,48,45,43,35,27,30.13,30.00,14,5,16,0.00
2013-4-22,83,79,72,54,50,48,47,37,30,30.10,30.00,12,5,12,0.00
2013-4-23,89,82,71,56,50,45,43,34,23,30.17,30.10,13,4,16,0.00
2013-4-24,98,84,73,62,55,38,67,39,16,30.19,30.07,17,4,23,0.00
2013-4-25,96,90,82,62,57,52,39,33,25,30.09,29.96,12,4,12,0.00
2013-4-26,104,92,81,59,51,37,37,27,13,29.98,29.85,18,5,19,0.00
2013-4-27,104,98,88,54,47,38,29,19,12,29.97,29.90,8,2,14,0.00
2013-4-28,105,96,79,65,55,48,59,28,17,30.01,29.93,10,3,11,0.00
2013-4-29,102,96,86,58,44,33,32,18,10,30.03,29.92,16,6,17,0.00
2013-4-30,101,95,83,61,50,33,35,24,10,30.02,29.90,20,5,20,0.00
2013-5-1,104,96,88,58,47,33,31,20,12,29.96,29.87,18,6,18,0.00
2013-5-2,102,93,82,66,56,44,49,32,17,29.94,29.86,7,3,7,0.00
2013-5-3,99,93,82,64,55,46,49,29,19,29.95,29.88,11,4,11,0.00
2013-5-4,103,96,85,60,50,42,38,23,14,29.99,29.91,11,4,11,0.00
2013-5-5,103,98,91,60,52,44,34,22,16,30.01,29.93,11,5,13,0.00
2013-5-6,101,95,85,65,53,39,49,26,14,30.01,29.88,12,4,14,0.00
2013-5-7,100,93,86,61,54,42,36,28,17,30.00,29.88,17,4,24,0.00
2013-5-8,104,96,87,62,56,49,35,27,17,29.98,29.88,11,4,11,0.00
2013-5-9,97,91,84,69,61,56,56,38,28,29.99,29.87,13,5,13,0.00
2013-5-10,99,92,84,69,57,35,56,36,11,30.03,29.93,20,5,23,0.00
2013-5-11,94,90,81,69,62,56,52,41,30,30.04,29.91,12,4,13,0.00
2013-5-12,91,88,82,62,53,44,49,32,20,29.98,29.92,34,11,51,0.00
2013-5-13,91,87,81,66,62,54,50,42,30,30.11,29.96,13,5,15,0.00
2013-5-14,98,87,76,63,50,33,64,32,12,30.00,29.87,27,8,36,0.00
2013-5-15,90,85,78,59,56,52,46,37,31,29.99,29.93,14,6,16,0.00
2013-5-16,90,86,82,62,59,48,46,40,30,30.11,30.03,9,5,10,0.00
2013-5-17,100,92,85,64,60,54,45,35,26,30.11,30.05,15,5,15,0.00
2013-5-18,107,97,84,64,57,50,39,27,17,30.08,29.97,16,4,16,0.00
2013-5-19,99,95,89,62,58,53,35,30,24,30.01,29.89,16,8,16,0.00
2013-5-20,102,97,90,60,53,39,34,24,15,29.92,29.83,14,5,17,0.00
2013-5-21,98,94,87,64,54,46,46,27,21,29.98,29.89,21,8,23,0.00
2013-5-22,109,95,85,64,57,44,40,29,19,30.01,29.91,8,4,16,0.00
2013-5-23,101,88,77,63,57,44,54,36,23,30.00,29.91,12,2,12,0.00
2013-5-24,111,104,98,70,61,49,33,25,17,29.99,29.86,7,3,9,0.00
2013-5-25,108,96,83,68,64,61,59,36,23,29.97,29.92,8,2,10,0.00
2013-5-26,104,91,80,66,60,46,58,38,17,30.01,29.91,14,3,14,0.00
2013-5-27,96,92,84,58,50,42,34,25,17,30.08,30.01,14,6,16,0.00
2013-5-28,103,96,85,55,44,35,28,18,10,30.10,30.02,15,6,20,0.00
2013-5-29,103,96,85,61,52,36,39,24,13,30.06,29.95,17,5,18,0.00
2013-5-30,109,103,91,58,47,39,29,16,11,29.96,29.84,10,4,13,0.00
2013-5-31,106,101,88,68,56,37,45,25,11,29.95,29.86,16,4,16,0.00
2013-6-1,105,100,96,46,40,37,17,14,10,29.90,29.88,14,7,15,0.00
2013-6-2,114,102,88,67,53,41,41,22,10,30.00,29.89,16,4,16,0.00
2013-6-3,116,111,100,69,51,43,28,15,11,29.94,29.80,28,7,32,0.00
2013-6-4,107,102,95,64,52,42,36,21,13,29.98,29.91,12,4,16,0.00
2013-6-5,107,99,87,67,59,46,48,28,16,30.06,29.97,17,4,17,0.00
2013-6-6,102,98,92,62,58,38,35,27,13,30.11,30.01,9,3,11,0.00
2013-6-7,104,100,94,58,44,36,30,16,12,30.08,29.98,15,6,15,0.00
2013-6-8,109,102,92,61,52,37,36,21,10,30.02,29.89,17,4,20,0.00
2013-6-9,109,107,105,45,42,38,13,11,10,29.91,29.83,29,14,35,0.00
2013-6-10,101,95,89,65,61,57,41,32,26,29.97,29.88,12,4,13,0.00
2013-6-11,104,99,92,64,57,50,31,25,18,29.97,29.88,7,3,10,0.00
2013-6-12,105,97,87,69,60,45,51,30,19,29.91,29.78,12,4,12,0.00
2013-6-13,99,96,93,66,61,58,42,32,26,29.91,29.84,6,3,6,0.00
2013-6-14,100,94,89,64,61,53,42,35,23,29.95,29.87,10,5,11,0.00
2013-6-15,100,95,92,61,56,51,35,28,21,29.96,29.88,13,5,15,0.00
2013-6-16,103,92,82,64,61,58,46,36,26,29.96,29.85,12,4,13,0.00
2013-6-17,99,93,89,67,64,60,44,38,29,29.91,29.81,11,4,12,0.00
2013-6-18,101,95,83,69,62,54,47,35,22,29.87,29.76,11,3,12,0.00
2013-6-19,104,92,79,67,60,55,55,36,24,29.87,29.78,13,3,13,0.00
2013-6-20,102,97,90,70,65,58,43,35,25,29.93,29.84,12,4,12,0.00
2013-6-21,104,100,95,62,58,53,30,25,22,29.88,29.84,8,4,13,0.00
2013-6-22,109,102,95,70,62,44,43,29,13,29.92,29.81,14,4,17,0.00
2013-6-23,103,99,94,68,60,51,41,28,20,29.92,29.82,11,5,14,0.00
2013-6-24,100,97,90,61,57,53,36,27,22,29.93,29.86,10,4,11,0.00
2013-6-25,104,99,88,68,59,49,48,28,17,29.95,29.85,12,4,87,0.00
2013-6-26,107,102,92,63,55,45,30,22,14,29.92,29.85,14,4,17,0.00
2013-6-27,103,100,86,66,60,57,50,28,23,29.91,29.81,7,4,9,0.00
2013-6-28,106,95,82,72,64,54,55,37,25,29.88,29.80,9,2,10,0.00
2013-6-29,106,100,88,68,63,48,46,30,20,29.89,29.80,10,3,10,0.00
2013-6-30,103,94,83,69,65,54,57,40,28,29.90,29.82,13,3,13,0.00
2013-7-1,103,97,88,67,63,54,48,34,20,29.93,29.83,14,5,15,0.00
2013-7-2,106,94,87,68,65,62,53,39,28,29.91,29.80,15,5,16,0.00
2013-7-3,105,97,89,68,64,61,49,36,27,29.87,29.78,9,3,11,0.00
2013-7-4,101,96,80,70,64,59,52,36,27,29.87,29.79,10,3,10,0.00
2013-7-5,104,97,89,70,65,60,46,36,26,29.88,29.78,12,4,12,0.00
2013-7-6,105,98,84,71,66,61,53,37,26,29.87,29.79,9,3,10,0.00
2013-7-7,103,98,88,71,68,65,50,39,32,29.90,29.83,10,4,11,0.00
2013-7-8,110,102,92,75,70,67,45,37,27,29.93,29.83,10,3,10,0.00
2013-7-9,108,102,90,73,70,66,49,37,28,29.87,29.75,9,3,11,0.00
2013-7-10,105,99,90,70,67,64,50,36,28,29.77,29.69,11,4,13,0.00
2013-7-11,102,96,89,70,66,63,44,38,30,29.78,29.72,16,4,16,0.00
2013-7-12,105,98,89,72,66,63,44,36,26,29.84,29.78,12,4,17,0.00
2013-7-13,106,100,94,70,67,63,44,35,27,29.83,29.75,8,4,10,0.00
2013-7-14,106,99,92,70,67,64,47,36,28,29.82,29.75,8,4,10,0.00
2013-7-15,104,99,93,68,66,64,41,35,29,29.83,29.75,8,4,8,0.00
2013-7-16,105,102,96,69,66,64,41,32,28,29.85,29.75,8,4,9,0.00
2013-7-17,104,100,92,72,69,65,48,37,31,29.88,29.81,11,4,11,0.00
2013-7-18,103,98,94,68,64,61,41,33,26,29.89,29.82,12,4,16,0.00
2013-7-19,104,98,91,67,64,62,42,33,28,29.87,29.79,11,4,13,0.00
2013-7-20,104,97,91,69,66,63,45,36,30,29.83,29.77,10,4,13,0.00
2013-7-22,104,98,91,66,63,57,43,33,23,29.79,29.70,11,4,14,0.00
2013-7-23,111,99,87,69,62,52,43,31,16,29.81,29.75,11,4,11,0.00
2013-7-24,110,101,94,69,62,49,42,29,16,29.91,29.79,17,4,24,0.00
2013-7-25,106,100,94,71,64,55,43,32,22,29.89,29.78,8,3,11,0.00
2013-7-26,105,100,90,67,60,52,46,28,20,29.83,29.74,8,2,8,0.00
2013-7-27,102,96,87,70,60,54,50,31,23,29.82,29.74,14,4,14,0.00
2013-7-28,106,100,93,67,56,50,38,24,17,29.90,29.85,13,5,13,0.00
2013-7-29,106,99,88,69,62,56,53,30,20,29.97,29.86,10,3,11,0.00
2013-7-30,103,98,88,72,64,55,46,34,24,29.92,29.79,11,4,11,0.00
2013-7-31,104,98,88,68,57,42,44,28,12,29.87,29.76,27,8,37,0.00
2013-8-1,102,98,91,70,65,58,47,35,25,29.90,29.83,11,4,14,0.00
2013-8-2,104,99,89,72,64,56,56,33,24,29.97,29.86,13,4,16,0.00
2013-8-3,104,100,92,70,62,53,41,30,19,29.96,29.86,9,5,12,0.00
2013-8-4,100,97,94,73,68,62,50,39,31,29.92,29.82,14,5,14,0.00
2013-8-5,105,99,85,71,66,61,63,35,26,29.87,29.79,10,3,10,0.00
2013-8-6,106,91,83,72,66,59,67,45,23,29.88,29.82,10,4,12,0.00
2013-8-7,101,90,81,76,72,62,85,59,32,29.91,29.84,13,3,15,0.00
2013-8-8,104,101,97,69,65,61,38,32,26,29.93,29.82,11,5,13,0.00
2013-8-9,108,102,94,65,58,46,35,25,16,29.88,29.77,12,5,14,0.00
2013-8-10,100,98,95,62,61,61,34,30,28,29.80,29.79,2,2,2,0.00
2013-9-4,94,93,92,65,64,63,41,39,37,29.86,29.85,2,0,2,0.00
2013-9-5,101,94,87,72,67,62,50,42,33,29.92,29.82,10,4,11,0.00
2013-9-6,106,97,87,72,68,66,51,40,29,29.92,29.86,9,4,20,0.00
2013-9-7,101,96,88,70,67,63,53,40,34,30.03,29.93,8,3,9,0.00
2013-9-8,109,96,89,72,68,64,52,41,28,30.01,29.90,10,3,13,0.00
2013-9-9,110,96,86,67,61,56,47,33,21,29.96,29.89,9,3,9,0.00
2013-9-10,97,94,91,67,66,65,44,40,36,30.00,29.99,8,3,13,0.00
2013-9-11,106,96,88,70,67,59,52,39,28,29.98,29.88,19,4,22,0.00
2013-9-12,101,96,88,72,68,65,47,41,35,29.96,29.89,10,4,16,0.00
2013-9-13,112,100,92,74,71,67,48,40,29,29.98,29.91,7,3,8,0.00
2013-9-14,109,102,96,81,72,68,47,38,30,29.98,29.89,8,3,9,0.00
2013-9-15,108,102,93,70,65,59,41,31,22,29.96,29.85,12,3,13,0.00
2013-9-16,104,97,88,71,69,65,56,40,31,29.93,29.85,14,5,16,0.00
2013-9-17,107,97,87,69,65,58,48,36,23,29.94,29.87,9,3,11,0.00
2013-9-18,105,98,90,71,60,54,48,30,23,29.98,29.86,13,4,13,0.00
2013-9-19,104,99,88,70,64,57,47,33,23,30.02,29.91,10,4,11,0.00
2013-9-20,107,102,92,72,62,49,47,28,16,29.98,29.91,22,7,30,0.00
2013-9-21,102,96,88,69,64,59,46,37,26,30.07,29.99,11,6,14,0.00
2013-9-22,103,93,84,71,67,62,59,43,30,30.07,29.96,10,4,11,0.00
2013-9-23,104,97,86,72,65,60,45,36,28,30.01,29.90,17,5,24,0.00
2013-9-24,98,92,89,68,64,54,48,40,30,30.05,29.97,9,5,12,0.00
2013-9-25,97,90,82,64,61,57,49,38,30,30.14,30.07,15,6,15,0.00
2013-9-26,100,92,80,70,64,60,51,40,32,30.12,30.00,11,4,16,0.00
2013-9-27,100,93,81,70,67,64,59,44,34,30.01,29.90,9,3,10,0.00
2013-9-28,99,90,82,68,66,64,57,46,34,30.01,29.95,9,3,10,0.00
2013-9-29,94,89,81,68,66,63,61,47,37,30.05,29.94,11,4,12,0.00
2013-9-30,96,90,82,68,65,61,55,44,39,30.01,29.91,12,4,12,0.00
2013-10-1,104,92,83,69,63,48,51,40,17,29.98,29.88,14,4,14,0.00
2013-10-2,97,90,80,72,67,62,65,48,35,29.98,29.91,13,4,13,0.00
2013-10-3,100,94,86,66,61,55,42,34,25,30.03,29.95,10,4,12,0.00
2013-10-4,96,91,84,66,64,59,54,40,35,30.08,29.99,15,5,15,0.00
2013-10-5,94,88,82,65,61,56,48,41,36,30.05,29.97,10,5,13,0.00
2013-10-6,92,85,74,59,55,50,48,37,31,30.07,30.01,12,5,14,0.00
2013-10-7,93,85,74,63,56,52,46,38,33,30.14,30.07,20,6,20,0.00
2013-10-8,98,88,76,62,57,50,51,36,27,30.14,30.05,8,3,12,0.00
2013-10-9,98,91,76,62,58,47,39,34,29,30.11,30.03,7,2,7,0.00
2013-10-10,98,92,77,64,57,42,41,31,26,30.14,30.05,7,2,9,0.00
2013-10-11,104,91,77,64,60,47,47,36,24,30.17,30.09,7,2,10,0.00
2013-10-12,101,92,84,66,62,52,50,38,23,30.12,30.01,7,3,9,0.00
2013-10-13,96,89,76,60,56,48,38,33,26,30.03,29.94,9,3,9,0.00
2013-10-14,99,85,73,67,60,51,50,44,29,30.05,29.97,8,2,10,0.00
2013-10-15,100,88,76,65,59,49,46,37,30,30.12,30.05,11,4,14,0.00
2013-10-16,99,88,76,66,60,53,48,39,30,30.09,29.97,10,3,10,0.00
2013-10-17,97,89,80,68,63,55,56,43,26,30.04,29.96,12,4,15,0.00
2013-10-18,96,87,74,70,66,49,65,50,29,30.09,30.01,13,3,13,0.00
2013-10-19,96,88,82,64,61,55,48,42,34,30.19,30.12,11,4,16,0.00
2013-10-20,98,88,79,66,62,56,58,44,34,30.19,30.10,9,3,13,0.00
2013-10-21,101,86,79,66,62,55,55,44,29,30.11,30.03,8,2,10,0.00
2013-10-22,101,85,74,65,56,47,60,39,25,30.08,29.99,8,2,8,0.00
2013-10-23,97,89,75,64,59,46,47,38,33,30.09,30.00,6,2,8,0.00
2013-10-24,95,87,80,67,62,55,51,44,34,30.08,30.01,7,3,8,0.00
2013-10-25,94,86,78,65,59,50,52,40,31,30.09,30.01,13,4,14,0.00
2013-10-26,91,86,77,62,57,50,43,37,29,30.07,29.99,14,4,14,0.00
2013-10-27,94,87,78,59,58,54,52,38,31,30.08,30.02,11,3,11,0.00
2013-10-28,96,85,70,62,55,43,48,36,32,30.10,30.02,11,3,13,0.00
2013-10-29,92,84,68,63,58,45,59,42,35,30.05,29.95,10,3,10,0.00
2013-10-30,90,85,79,60,54,47,44,35,26,30.05,29.98,16,6,16,0.00
2013-10-31,89,85,79,61,58,52,48,40,37,30.10,30.03,9,4,13,0.00
2013-11-1,91,84,75,63,58,51,48,41,36,30.11,30.04,8,3,12,0.00
2013-11-2,92,80,69,58,49,42,47,35,22,30.12,30.05,8,3,11,0.00
2013-11-3,98,86,77,62,54,48,46,34,29,30.14,30.06,13,5,16,0.00
2013-11-4,102,88,75,65,54,49,63,33,26,30.17,30.08,12,4,17,0.00
2013-11-5,91,87,79,66,61,50,56,43,26,30.14,30.06,14,5,17,0.00
2013-11-6,98,86,71,66,58,47,50,39,21,30.14,30.01,11,3,11,0.00
2013-11-7,95,85,71,64,59,52,62,43,31,30.06,29.96,10,3,10,0.00
2013-11-8,94,86,79,66,59,51,59,40,27,30.00,29.90,10,4,19,0.00
2013-11-9,90,84,76,62,60,56,56,44,39,30.03,29.97,12,4,12,0.00
2013-11-10,91,85,75,63,61,57,61,45,36,30.07,30.00,8,2,8,0.00
2013-11-11,99,86,72,63,58,53,55,40,29,30.10,30.04,11,4,13,0.00
2013-11-12,92,86,73,62,56,48,49,37,30,30.11,30.03,17,6,22,0.00
2013-11-13,98,85,77,64,62,57,52,47,33,30.10,30.04,13,4,17,0.00
2013-11-14,96,86,78,64,58,53,45,39,33,30.10,30.02,12,3,12,0.00
2013-11-15,95,85,76,63,59,56,52,42,30,30.08,30.01,8,3,10,0.00
2013-11-16,89,83,74,61,56,49,57,41,31,30.11,30.03,10,4,12,0.00
2013-11-17,85,81,73,57,52,47,55,37,28,30.05,29.95,12,3,12,0.00
2013-11-18,78,78,78,49,49,49,37,37,37,30.03,30.03,4,4,4,0.00
2013-11-19,89,79,70,60,55,51,55,44,35,30.11,30.06,11,4,12,0.00
2013-11-20,85,80,73,56,52,47,52,39,32,30.20,30.11,12,4,13,0.00
2013-11-21,90,78,69,57,52,44,52,41,31,30.19,30.10,17,4,17,0.00
2013-11-22,85,80,72,58,56,50,54,44,37,30.16,30.06,10,2,12,0.00
2013-11-23,92,83,74,66,62,56,60,49,38,30.17,30.08,10,3,10,0.00
2013-11-24,96,82,66,65,59,50,70,47,35,30.15,30.08,11,3,11,0.00
2013-11-25,79,77,77,61,57,51,58,51,38,30.14,30.08,4,1,4,0.00
2013-11-26,100,88,78,65,57,47,49,35,23,30.14,30.06,12,3,12,0.00
2013-11-27,106,90,80,66,55,39,50,33,16,30.19,30.12,7,2,8,0.00
2013-11-28,102,88,78,67,60,51,65,41,25,30.21,30.11,6,2,7,0.00
2013-11-29,88,82,75,66,63,60,63,53,46,30.15,30.06,11,3,12,0.00
2013-11-30,86,80,74,63,60,57,58,50,42,30.16,30.10,7,2,10,0.00
2013-12-1,92,86,78,65,54,48,64,36,24,30.21,30.15,9,4,13,0.00
2013-12-2,91,84,78,64,56,46,50,40,31,30.25,30.15,9,4,14,0.00
2013-12-3,94,87,78,67,60,43,70,42,25,30.15,30.04,6,2,7,0.00
2013-12-4,92,83,75,69,65,62,67,56,38,30.07,29.98,9,2,12,0.00
2013-12-5,84,78,70,57,54,52,53,44,38,30.11,30.03,10,2,11,0.00
2013-12-6,86,77,69,51,47,43,46,35,29,30.23,30.14,11,3,11,0.00
2013-12-7,84,78,70,54,50,44,50,38,25,30.26,30.17,14,4,14,0.00
2013-12-8,86,78,66,58,52,41,48,41,33,30.26,30.16,9,3,11,0.00
2013-12-9,79,74,67,51,48,41,50,40,33,30.32,30.23,15,7,18,0.00
2013-12-10,85,69,56,49,42,33,52,38,25,30.28,30.14,10,3,10,0.00
2013-12-11,74,64,55,47,42,36,55,44,35,30.14,29.99,30,8,44,0.00
2013-12-12,65,60,54,34,31,27,39,35,30,30.16,30.08,44,17,44,0.00
2013-12-13,63,58,53,43,40,37,60,51,44,30.27,30.15,33,15,45,0.00
2013-12-14,78,62,58,43,36,33,46,38,28,30.47,30.33,30,10,47,0.00
2013-12-15,72,61,55,41,38,34,52,42,30,30.52,30.44,13,5,17,0.00
2013-12-16,80,62,54,43,36,32,48,39,27,30.45,30.32,18,4,18,0.00
2013-12-17,81,64,53,45,39,35,52,40,27,30.33,30.20,19,3,19,0.00
2013-12-18,82,69,54,43,41,38,57,37,24,30.27,30.19,12,3,16,0.00
2013-12-19,80,70,54,48,44,39,60,40,31,30.36,30.29,5,2,8,0.00
2013-12-20,86,74,66,49,45,38,48,36,28,30.43,30.34,11,4,13,0.00
2013-12-21,79,74,65,48,43,39,45,34,27,30.42,30.32,10,4,17,0.00
2013-12-22,79,71,60,40,34,27,34,26,22,30.42,30.30,19,8,19,0.00
2013-12-23,83,72,58,34,28,19,30,20,12,30.41,30.32,16,6,17,0.00
2013-12-24,84,74,67,40,26,11,31,19,10,30.43,30.32,14,6,16,0.00
2013-12-25,72,70,69,45,41,32,42,36,23,30.37,30.27,3,2,3,0.00
2013-12-26,86,78,67,55,49,37,53,37,24,30.26,30.16,10,2,10,0.00
2013-12-27,86,77,67,58,54,46,56,44,36,30.25,30.14,10,3,11,0.00
2013-12-28,84,77,67,64,58,47,69,53,47,30.19,30.08,12,3,12,0.00
2013-12-29,74,71,66,39,32,28,30,25,21,30.14,30.06,34,14,39,0.00
2013-12-30,79,70,62,47,42,35,46,36,30,30.21,30.11,16,5,23,0.00
2013-12-31,76,70,65,50,49,47,53,46,40,30.23,30.15,12,4,15,0.00
2014-1-1,81,70,59,52,48,45,59,46,33,30.33,30.22,10,3,10,0.00
2014-1-2,82,73,61,54,50,46,60,44,36,30.31,30.20,6,2,8,0.00